createdAt,value
2022-11-21T00:03:51.507Z,12.05
2022-11-21T00:08:47.894Z,11.97
2022-11-21T00:13:43.400Z,10.67
2022-11-21T00:18:46.424Z,11.83
2022-11-21T00:23:40.048Z,11.76
2022-11-21T00:28:33.552Z,11.22
2022-11-21T00:33:28.863Z,10.19
2022-11-21T00:38:25.761Z,11.45
2022-11-21T00:43:19.919Z,10.03
2022-11-21T00:48:13.107Z,11.22
2022-11-21T00:53:08.373Z,10.69
2022-11-21T00:58:01.871Z,11.18
2022-11-21T01:02:55.115Z,10.95
2022-11-21T01:07:56.165Z,11.07
2022-11-21T01:12:51.588Z,10.63
2022-11-21T01:17:44.957Z,10.75
2022-11-21T01:22:38.396Z,10.18
2022-11-21T01:27:41.437Z,10.66
2022-11-21T01:32:36.880Z,9.66
2022-11-21T01:37:42.358Z,10.37
2022-11-21T01:42:50.950Z,10.68
2022-11-21T01:47:45.793Z,9.59
2022-11-21T01:52:40.137Z,10.53
2022-11-21T01:57:42.700Z,10.76
2022-11-21T02:02:41.030Z,10.88
2022-11-21T02:07:41.122Z,10.73
2022-11-21T02:12:40.743Z,10.88
2022-11-21T02:17:34.723Z,10.55
2022-11-21T02:22:38.627Z,9.47
2022-11-21T02:27:33.394Z,9.10
2022-11-21T02:32:33.711Z,10.32
2022-11-21T02:37:26.925Z,9.61
2022-11-21T02:42:27.999Z,10.54
2022-11-21T02:47:23.977Z,9.62
2022-11-21T02:52:17.228Z,9.96
2022-11-21T02:57:10.800Z,9.75
2022-11-21T03:02:04.073Z,9.92
2022-11-21T03:06:58.758Z,9.74
2022-11-21T03:11:52.204Z,10.08
2022-11-21T03:16:45.461Z,9.82
2022-11-21T03:21:38.783Z,9.27
2022-11-21T03:26:33.284Z,9.82
2022-11-21T03:31:26.510Z,9.30
2022-11-21T03:36:19.872Z,9.75
2022-11-21T03:41:27.017Z,9.90
2022-11-21T03:46:21.717Z,9.89
2022-11-21T03:51:16.784Z,9.82
2022-11-21T03:56:10.082Z,9.80
2022-11-21T04:01:03.352Z,9.34
2022-11-21T04:05:58.012Z,8.61
2022-11-21T04:10:56.048Z,9.92
2022-11-21T04:15:54.221Z,9.84
2022-11-21T04:20:47.704Z,9.51
2022-11-21T04:25:42.906Z,9.68
2022-11-21T04:30:36.201Z,9.01
2022-11-21T04:35:29.381Z,9.50
2022-11-21T04:40:22.754Z,9.55
2022-11-21T04:45:21.791Z,9.52
2022-11-21T04:50:24.727Z,9.47
2022-11-21T04:55:19.280Z,8.39
2022-11-21T05:00:23.992Z,9.41
2022-11-21T05:05:21.196Z,8.66
2022-11-21T05:10:16.299Z,7.95
2022-11-21T05:15:10.515Z,8.67
2022-11-21T05:20:06.065Z,9.28
2022-11-21T05:24:59.507Z,8.79
2022-11-21T05:29:53.501Z,9.34
2022-11-21T05:34:57.200Z,8.98
2022-11-21T05:39:53.341Z,9.33
2022-11-21T05:44:46.695Z,9.43
2022-11-21T05:49:39.789Z,9.46
2022-11-21T05:54:32.898Z,9.36
2022-11-21T05:59:27.428Z,9.36
2022-11-21T06:04:21.153Z,9.60
2022-11-21T06:09:19.201Z,9.01
2022-11-21T06:14:24.919Z,9.46
2022-11-21T06:19:19.989Z,9.65
2022-11-21T06:24:26.097Z,9.67
2022-11-21T06:29:22.380Z,8.83
2022-11-21T06:34:21.367Z,8.81
2022-11-21T06:39:18.999Z,9.10
2022-11-21T06:44:15.312Z,9.74
2022-11-21T06:49:10.529Z,9.85
2022-11-21T06:54:07.957Z,9.87
2022-11-21T06:59:13.476Z,9.16
2022-11-21T07:04:08.974Z,9.67
2022-11-21T07:14:35.160Z,10.42
2022-11-21T07:19:28.793Z,10.61
2022-11-21T07:24:22.178Z,10.79
2022-11-21T07:29:16.500Z,10.99
2022-11-21T07:34:12.747Z,10.20
2022-11-21T07:39:06.699Z,11.27
2022-11-21T07:44:00.121Z,10.90
2022-11-21T07:48:53.332Z,11.06
2022-11-21T07:53:47.957Z,11.49
2022-11-21T07:58:41.891Z,11.52
2022-11-21T08:03:35.460Z,11.45
2022-11-21T08:08:28.645Z,11.14
2022-11-21T08:13:23.294Z,11.29
2022-11-21T08:18:19.203Z,10.31
2022-11-21T08:23:12.639Z,10.98
2022-11-21T08:28:06.699Z,11.25
2022-11-21T08:33:01.726Z,10.27
2022-11-21T08:37:58.230Z,11.36
2022-11-21T08:42:57.934Z,11.39
2022-11-21T08:47:51.132Z,11.23
2022-11-21T08:52:47.773Z,11.42
2022-11-21T08:57:41.274Z,11.16
2022-11-21T09:02:43.253Z,10.74
2022-11-21T09:07:36.922Z,11.36
2022-11-21T09:12:32.247Z,11.37
2022-11-21T09:17:42.837Z,11.23
2022-11-21T09:22:36.154Z,11.14
2022-11-21T09:27:29.593Z,10.80
2022-11-21T09:32:24.810Z,11.41
2022-11-21T09:37:18.201Z,10.83
2022-11-21T09:42:34.892Z,10.63
2022-11-21T09:47:34.404Z,11.46
2022-11-21T09:52:33.921Z,11.33
2022-11-21T09:57:33.545Z,11.53
2022-11-21T10:02:29.488Z,11.56
2022-11-21T10:07:27.312Z,11.28
2022-11-21T10:12:38.694Z,11.70
2022-11-21T10:17:48.029Z,11.46
2022-11-21T10:23:02.549Z,11.20
2022-11-21T10:28:01.539Z,11.82
2022-11-21T10:33:00.568Z,11.55
2022-11-21T10:37:59.325Z,10.78
2022-11-21T10:42:58.033Z,11.56
2022-11-21T10:47:52.789Z,10.88
2022-11-21T10:52:52.341Z,11.35
2022-11-21T10:57:47.607Z,11.17
2022-11-21T11:02:41.731Z,11.27
2022-11-21T11:07:35.022Z,11.20
2022-11-21T11:12:51.142Z,11.10
2022-11-21T11:17:46.375Z,10.60
2022-11-21T11:22:39.656Z,10.87
2022-11-21T11:27:34.440Z,10.78
2022-11-21T11:32:27.664Z,9.95
2022-11-21T11:37:40.130Z,10.69
2022-11-21T11:43:16.239Z,10.35
2022-11-21T11:48:11.053Z,10.29
2022-11-21T11:53:12.723Z,10.59
2022-11-21T11:58:14.469Z,10.46
2022-11-21T12:03:20.883Z,10.33
2022-11-21T12:08:40.771Z,10.67
2022-11-21T12:13:38.220Z,10.69
2022-11-21T12:18:37.543Z,10.78
2022-11-21T12:23:34.193Z,10.94
2022-11-21T12:28:38.259Z,10.44
2022-11-21T12:33:37.439Z,10.94
2022-11-21T12:38:47.772Z,10.74
2022-11-21T12:43:54.494Z,10.86
2022-11-21T12:49:18.448Z,10.73
2022-11-21T12:54:33.923Z,11.31
2022-11-21T12:59:27.540Z,11.40
2022-11-21T13:04:36.029Z,11.48
2022-11-21T13:09:33.472Z,11.24
2022-11-21T13:14:45.927Z,11.47
2022-11-21T13:19:47.184Z,11.21
2022-11-21T13:24:57.622Z,11.13
2022-11-21T13:30:22.092Z,11.31
2022-11-21T13:35:48.602Z,10.97
2022-11-21T13:41:04.320Z,11.18
2022-11-21T13:45:59.497Z,11.23
2022-11-21T13:51:24.525Z,11.06
2022-11-21T13:56:30.931Z,11.25
2022-11-21T14:01:54.378Z,11.13
2022-11-21T14:06:48.435Z,10.66
2022-11-21T14:11:49.929Z,11.02
2022-11-21T14:16:49.728Z,10.77
2022-11-21T14:21:47.345Z,9.75
2022-11-21T14:26:47.160Z,10.72
2022-11-21T14:31:47.330Z,10.04
2022-11-21T14:36:47.727Z,10.42
2022-11-21T14:41:44.289Z,10.16
2022-11-21T14:46:39.634Z,10.21
2022-11-21T14:51:34.834Z,9.67
2022-11-21T14:56:35.411Z,9.09
2022-11-21T15:01:49.339Z,10.04
2022-11-21T15:06:59.562Z,8.09
2022-11-21T15:11:59.878Z,9.39
2022-11-21T15:16:58.965Z,9.37
2022-11-21T15:21:57.906Z,8.21
2022-11-21T15:26:51.257Z,9.61
2022-11-21T15:31:46.131Z,8.13
2022-11-21T15:36:42.218Z,8.57
2022-11-21T15:41:37.065Z,9.45
2022-11-21T15:46:33.612Z,9.24
2022-11-21T15:52:05.612Z,9.02
2022-11-21T15:56:54.049Z,7.97
2022-11-21T16:01:47.753Z,7.94
2022-11-21T16:06:46.827Z,8.91
2022-11-21T16:11:50.867Z,7.83
2022-11-21T16:16:50.784Z,8.45
2022-11-21T16:21:44.802Z,9.25
2022-11-21T16:26:41.762Z,8.18
2022-11-21T16:31:35.604Z,7.84
2022-11-21T16:36:37.085Z,8.57
2022-11-21T16:41:32.713Z,8.23
2022-11-21T16:46:27.289Z,8.51
2022-11-21T16:51:25.977Z,8.48
2022-11-21T16:56:21.030Z,8.65
2022-11-21T17:01:16.573Z,9.09
2022-11-21T17:06:11.737Z,8.51
2022-11-21T17:11:15.167Z,8.71
2022-11-21T17:16:13.953Z,7.51
2022-11-21T17:21:13.901Z,9.12
2022-11-21T17:26:18.953Z,8.21
2022-11-21T17:31:22.668Z,7.81
2022-11-21T17:36:25.090Z,8.52
2022-11-21T17:41:22.181Z,8.66
2022-11-21T17:46:23.195Z,7.63
2022-11-21T17:51:21.571Z,7.64
2022-11-21T17:56:22.545Z,7.49
2022-11-21T18:01:27.563Z,7.56
2022-11-21T18:06:24.924Z,8.55
2022-11-21T18:12:04.562Z,9.09
2022-11-21T18:17:05.033Z,9.02
2022-11-21T18:22:03.110Z,8.52
2022-11-21T18:26:57.662Z,8.57
2022-11-21T18:31:51.375Z,8.14
2022-11-21T18:36:49.628Z,8.47
2022-11-21T18:41:51.640Z,7.53
2022-11-21T18:46:48.030Z,8.40
2022-11-21T18:52:05.719Z,8.52
2022-11-21T18:57:05.650Z,8.23
2022-11-21T19:02:02.192Z,8.09
2022-11-21T19:07:00.613Z,8.90
2022-11-21T19:11:56.855Z,8.42
2022-11-21T19:16:54.814Z,7.76
2022-11-21T19:21:51.570Z,8.38
2022-11-21T19:26:46.554Z,8.83
2022-11-21T19:31:45.376Z,7.16
2022-11-21T19:36:39.728Z,8.86
2022-11-21T19:41:38.593Z,8.79
2022-11-21T19:46:37.599Z,8.63
2022-11-21T19:51:34.116Z,7.12
2022-11-21T20:01:48.316Z,8.56
2022-11-21T20:06:46.525Z,6.96
2022-11-21T20:11:43.999Z,8.19
2022-11-21T20:24:53.517Z,7.42
2022-11-21T20:30:31.433Z,6.89
2022-11-21T20:35:39.561Z,8.41
2022-11-21T20:40:36.256Z,7.22
2022-11-21T20:57:23.834Z,6.71
2022-11-21T21:03:23.068Z,8.62
2022-11-21T21:08:35.062Z,6.62
2022-11-21T21:13:37.019Z,7.16
2022-11-21T21:19:24.397Z,8.65
2022-11-21T21:24:19.942Z,8.54
2022-11-21T21:29:15.473Z,8.57
2022-11-21T21:34:12.990Z,8.04
2022-11-21T21:39:10.116Z,8.11
2022-11-21T21:44:05.934Z,8.50
2022-11-21T21:49:28.933Z,8.50
2022-11-21T22:00:47.662Z,7.91
2022-11-21T22:06:16.963Z,6.57
2022-11-21T22:11:21.748Z,6.98
2022-11-21T22:16:47.751Z,7.86
2022-11-21T22:29:14.442Z,8.30
2022-11-21T22:34:26.971Z,7.66
2022-11-21T22:40:50.453Z,8.24
2022-11-21T22:45:50.116Z,8.17
2022-11-21T22:51:23.208Z,6.67
2022-11-21T22:56:28.066Z,6.22
2022-11-21T23:01:23.499Z,8.00
2022-11-21T23:06:30.074Z,6.14
2022-11-21T23:11:26.327Z,8.05
2022-11-21T23:16:26.643Z,7.44
2022-11-21T23:21:22.008Z,7.15
2022-11-21T23:26:16.644Z,6.86
2022-11-21T23:31:12.956Z,6.47
2022-11-21T23:36:10.713Z,7.54
2022-11-21T23:41:06.038Z,6.89
2022-11-21T23:45:59.614Z,6.15
2022-11-21T23:50:54.849Z,7.60
2022-11-21T23:55:49.921Z,6.94
